Time;durP1;ratioP1;P1;durP2;ratioP2;P2;SDS_P1;SDS_P2;PMS_P1;PMS_P2;Temp;Humidity;BMP_temperature;BMP_pressure;BME280_temperature;BME280_humidity;BME280_pressure;Samples;Min_cycle;Max_cycle;Signal;HPM_P1;HPM_P2
2024/01/20 00:01:35;;;;;;;22.30;12.85;;;-1.00;99.90;;;;;;4967127;28;20744;-67
2024/01/20 00:04:04;;;;;;;25.33;12.05;;;-1.00;99.90;;;;;;4966929;28;20680;-67
2024/01/20 00:06:32;;;;;;;26.92;12.55;;;-1.00;99.90;;;;;;4967242;28;20224;-68
2024/01/20 00:09:00;;;;;;;23.45;12.02;;;-1.00;99.90;;;;;;4967045;28;20594;-67
2024/01/20 00:11:28;;;;;;;23.85;12.57;;;-1.00;99.90;;;;;;4972343;28;20234;-68
2024/01/20 00:13:58;;;;;;;27.00;13.40;;;-1.00;99.90;;;;;;4967049;28;20327;-67
2024/01/20 00:16:26;;;;;;;23.08;11.77;;;-1.00;99.90;;;;;;4962759;28;20224;-67
2024/01/20 00:18:54;;;;;;;21.83;11.63;;;-1.00;99.90;;;;;;4973733;28;20879;-67
2024/01/20 00:21:22;;;;;;;24.58;12.88;;;-1.00;99.90;;;;;;4962089;28;20662;-68
2024/01/20 00:23:51;;;;;;;23.40;11.90;;;-1.10;99.90;;;;;;4953229;28;20201;-67
2024/01/20 00:26:19;;;;;;;24.80;11.60;;;-1.10;99.90;;;;;;4960380;28;20229;-67
2024/01/20 00:28:47;;;;;;;28.58;14.23;;;-1.10;99.90;;;;;;4950506;28;20215;-67
2024/01/20 00:31:17;;;;;;;21.17;11.18;;;-1.10;99.90;;;;;;4961852;28;20199;-67
2024/01/20 00:33:45;;;;;;;26.25;13.80;;;-1.00;99.90;;;;;;4969634;28;20226;-67
2024/01/20 00:36:13;;;;;;;23.00;11.15;;;-1.00;99.90;;;;;;4969508;28;20239;-67
2024/01/20 00:38:42;;;;;;;25.23;12.50;;;-1.00;99.90;;;;;;4975522;28;20204;-67
2024/01/20 00:41:11;;;;;;;29.02;12.75;;;-0.90;99.90;;;;;;4963179;28;20871;-66
2024/01/20 00:43:39;;;;;;;25.63;14.10;;;-0.80;99.90;;;;;;4970213;28;20205;-67
2024/01/20 00:46:07;;;;;;;31.15;13.13;;;-0.90;99.90;;;;;;4973349;28;20219;-67
2024/01/20 00:48:36;;;;;;;28.35;11.68;;;-0.90;99.90;;;;;;4968480;28;20603;-67
2024/01/20 00:51:04;;;;;;;24.52;12.88;;;-0.90;99.90;;;;;;4968573;28;20212;-67
2024/01/20 00:53:32;;;;;;;26.92;13.02;;;-0.90;99.90;;;;;;4967005;28;20351;-67
2024/01/20 00:56:00;;;;;;;27.45;13.82;;;-1.00;99.90;;;;;;4963268;28;20311;-67
2024/01/20 00:58:28;;;;;;;24.90;12.32;;;-1.00;99.90;;;;;;4969136;28;20208;-66
2024/01/20 01:00:56;;;;;;;21.83;12.98;;;-0.90;99.90;;;;;;4965771;28;20212;-66
2024/01/20 01:03:24;;;;;;;19.70;10.60;;;-1.00;99.90;;;;;;4968025;28;20271;-67
2024/01/20 01:05:54;;;;;;;23.50;11.85;;;-1.10;99.90;;;;;;4958165;28;20225;-67
2024/01/20 01:08:22;;;;;;;22.00;11.05;;;-1.20;99.90;;;;;;4977130;28;20250;-67
2024/01/20 01:10:50;;;;;;;24.63;11.90;;;-1.20;99.90;;;;;;4957156;28;20216;-67
2024/01/20 01:13:18;;;;;;;24.10;12.75;;;-1.20;99.90;;;;;;4951672;28;20205;-66
2024/01/20 01:15:48;;;;;;;26.45;11.93;;;-1.20;99.90;;;;;;4956826;28;20293;-67
2024/01/20 01:18:16;;;;;;;26.05;13.43;;;-1.10;99.90;;;;;;4968846;28;20203;-67
2024/01/20 01:20:45;;;;;;;27.80;13.70;;;-1.20;99.90;;;;;;4968395;28;20344;-66
2024/01/20 01:23:14;;;;;;;24.27;12.15;;;-1.30;99.90;;;;;;4968823;28;20200;-67
2024/01/20 01:25:42;;;;;;;23.73;11.85;;;-1.20;99.90;;;;;;4972370;28;20318;-67
2024/01/20 01:28:10;;;;;;;25.05;12.05;;;-1.30;99.90;;;;;;4977564;28;20219;-67
2024/01/20 01:30:38;;;;;;;21.10;11.52;;;-1.30;99.90;;;;;;4963433;28;20208;-67
2024/01/20 01:33:06;;;;;;;20.85;11.65;;;-1.30;99.90;;;;;;4965011;28;20208;-67
2024/01/20 01:35:34;;;;;;;23.73;11.98;;;-1.30;99.90;;;;;;4969496;28;20227;-67
2024/01/20 01:38:02;;;;;;;27.48;13.65;;;-1.30;99.90;;;;;;4968867;28;20297;-67
2024/01/20 01:40:32;;;;;;;21.10;11.48;;;-1.30;99.90;;;;;;4980693;28;20265;-66
2024/01/20 01:43:00;;;;;;;24.65;12.93;;;-1.30;99.90;;;;;;4981086;28;20208;-67
2024/01/20 01:45:28;;;;;;;23.60;12.60;;;-1.40;99.90;;;;;;4970073;28;20219;-66
2024/01/20 01:47:57;;;;;;;27.15;12.75;;;-1.40;99.90;;;;;;4970826;28;20204;-67
2024/01/20 01:50:25;;;;;;;28.08;13.73;;;-1.50;99.90;;;;;;4974137;28;21014;-67
2024/01/20 01:52:55;;;;;;;28.30;14.90;;;-1.50;99.90;;;;;;4970468;28;20204;-66
2024/01/20 01:55:24;;;;;;;26.98;13.95;;;-1.50;99.90;;;;;;4970382;28;20236;-66
2024/01/20 01:57:54;;;;;;;25.48;14.73;;;-1.40;99.90;;;;;;4970708;28;20267;-67
2024/01/20 02:00:22;;;;;;;27.92;13.70;;;-1.40;99.90;;;;;;4970466;28;20219;-67
2024/01/20 02:02:50;;;;;;;27.83;14.18;;;-1.50;99.90;;;;;;4970416;28;20208;-67
2024/01/20 02:05:18;;;;;;;26.70;13.32;;;-1.50;99.90;;;;;;4970403;28;21029;-66
2024/01/20 02:07:48;;;;;;;27.67;13.05;;;-1.60;99.90;;;;;;4970176;28;20230;-67
2024/01/20 02:10:17;;;;;;;27.55;15.38;;;-1.60;99.90;;;;;;4969790;28;20212;-67
2024/01/20 02:12:46;;;;;;;27.75;13.88;;;-1.60;99.90;;;;;;4970196;28;20230;-66
2024/01/20 02:15:16;;;;;;;30.00;14.40;;;-1.60;99.90;;;;;;4970230;28;20314;-67
2024/01/20 02:17:52;;;;;;;27.73;14.18;;;-1.50;99.90;;;;;;4970505;28;20263;-67
2024/01/20 02:20:20;;;;;;;27.67;12.85;;;-1.50;99.90;;;;;;4970055;28;20223;-67
2024/01/20 02:22:49;;;;;;;28.90;14.85;;;-1.40;99.90;;;;;;4970601;28;20756;-67
2024/01/20 02:25:17;;;;;;;29.77;15.50;;;-1.40;99.90;;;;;;4970237;28;20204;-67
2024/01/20 02:27:45;;;;;;;24.08;13.07;;;-1.40;99.90;;;;;;4966195;28;20216;-67
2024/01/20 02:30:13;;;;;;;24.65;13.35;;;-1.40;99.90;;;;;;4987332;28;20199;-67
2024/01/20 02:32:42;;;;;;;28.05;13.77;;;-1.40;99.90;;;;;;4983138;28;20270;-66
2024/01/20 02:35:10;;;;;;;29.50;14.13;;;-1.40;99.90;;;;;;4973652;28;20221;-66
2024/01/20 02:37:38;;;;;;;29.35;14.85;;;-1.40;99.90;;;;;;4989335;28;20250;-67
2024/01/20 02:40:09;;;;;;;26.92;14.05;;;-1.50;99.90;;;;;;4970816;28;20207;-67
2024/01/20 02:42:37;;;;;;;28.00;13.38;;;-1.50;99.90;;;;;;4969738;28;20215;-67
2024/01/20 02:45:05;;;;;;;27.70;13.20;;;-1.60;99.90;;;;;;4969927;28;20207;-67
2024/01/20 02:47:33;;;;;;;25.40;13.20;;;-1.60;99.90;;;;;;4969791;28;20234;-67
2024/01/20 02:50:02;;;;;;;28.30;13.65;;;-1.50;99.90;;;;;;4969260;28;20304;-66
2024/01/20 02:52:30;;;;;;;28.65;14.52;;;-1.50;99.90;;;;;;4970110;28;20311;-67
2024/01/20 02:54:58;;;;;;;27.65;13.30;;;-1.50;99.90;;;;;;4969641;28;20228;-67
2024/01/20 02:57:27;;;;;;;29.95;15.23;;;-1.60;99.90;;;;;;4981367;28;20247;-67
2024/01/20 02:59:55;;;;;;;30.33;14.68;;;-1.60;99.90;;;;;;4980486;28;20238;-67
2024/01/20 03:02:24;;;;;;;28.38;14.00;;;-1.60;99.90;;;;;;4969344;28;20928;-67
2024/01/20 03:04:52;;;;;;;26.13;13.80;;;-1.60;99.90;;;;;;4969659;28;20208;-67
2024/01/20 03:07:20;;;;;;;27.25;14.35;;;-1.60;99.90;;;;;;4969616;28;20236;-67
2024/01/20 03:09:48;;;;;;;30.40;14.35;;;-1.70;99.90;;;;;;4968909;28;20749;-66
2024/01/20 03:12:16;;;;;;;27.85;13.80;;;-1.70;99.90;;;;;;4969201;28;20230;-67
2024/01/20 03:14:45;;;;;;;31.92;15.07;;;-1.80;99.90;;;;;;4969466;28;20339;-67
2024/01/20 03:17:13;;;;;;;24.13;12.27;;;-1.70;99.90;;;;;;4969239;28;20236;-67
2024/01/20 03:19:41;;;;;;;26.42;13.98;;;-1.60;99.90;;;;;;4969528;28;20274;-67
2024/01/20 03:22:09;;;;;;;27.13;14.13;;;-1.70;99.90;;;;;;4969422;28;20208;-66
2024/01/20 03:24:37;;;;;;;29.42;16.30;;;-1.70;99.90;;;;;;4969312;28;20204;-66
2024/01/20 03:27:05;;;;;;;27.90;14.68;;;-1.70;99.90;;;;;;4969480;28;20331;-66
2024/01/20 03:29:33;;;;;;;25.42;13.90;;;-1.70;99.90;;;;;;4969213;28;20243;-66
2024/01/20 03:32:02;;;;;;;29.10;15.35;;;-1.70;99.90;;;;;;4969342;28;20204;-67
2024/01/20 03:34:30;;;;;;;30.05;15.60;;;-1.70;99.90;;;;;;4969330;28;20238;-67
2024/01/20 03:36:58;;;;;;;33.35;18.08;;;-1.80;99.90;;;;;;4969436;28;20243;-67
2024/01/20 03:39:26;;;;;;;28.65;15.10;;;-1.70;99.90;;;;;;4969010;28;20211;-66
2024/01/20 03:41:54;;;;;;;30.35;15.55;;;-1.60;99.90;;;;;;4968831;28;20212;-66
2024/01/20 03:44:22;;;;;;;28.55;14.45;;;-1.50;99.90;;;;;;4969121;28;20679;-67
2024/01/20 03:46:50;;;;;;;28.23;13.63;;;-1.50;99.90;;;;;;4968737;28;20235;-67
2024/01/20 03:49:20;;;;;;;30.02;16.33;;;-1.60;99.90;;;;;;4969143;28;20589;-67
2024/01/20 03:51:48;;;;;;;27.73;13.57;;;-1.60;99.90;;;;;;4968525;28;20623;-67
2024/01/20 03:54:16;;;;;;;30.15;14.70;;;-1.50;99.90;;;;;;4968582;28;20216;-67
2024/01/20 03:56:44;;;;;;;27.83;13.90;;;-1.50;99.90;;;;;;4968681;28;20616;-67
2024/01/20 03:59:12;;;;;;;29.95;16.00;;;-1.40;99.90;;;;;;4969116;28;20212;-66
2024/01/20 04:01:40;;;;;;;28.85;13.68;;;-1.50;99.90;;;;;;4968231;28;20680;-66
2024/01/20 04:04:08;;;;;;;28.27;13.50;;;-1.40;99.90;;;;;;4969170;28;20208;-67
2024/01/20 04:06:38;;;;;;;28.35;15.85;;;-1.40;99.90;;;;;;4968416;28;20588;-67
2024/01/20 04:09:05;;;;;;;27.90;14.60;;;-1.40;99.90;;;;;;4968801;28;20813;-66
2024/01/20 04:11:34;;;;;;;30.67;15.27;;;-1.60;99.90;;;;;;4968648;28;20219;-66
2024/01/20 04:14:01;;;;;;;27.52;14.85;;;-1.70;99.90;;;;;;4969265;28;20233;-67
2024/01/20 04:16:30;;;;;;;27.65;14.52;;;-1.60;99.90;;;;;;4968671;28;20263;-67
2024/01/20 04:18:58;;;;;;;27.42;15.27;;;-1.50;99.90;;;;;;4968806;28;20219;-67
2024/01/20 04:21:27;;;;;;;30.75;15.45;;;-1.60;99.90;;;;;;4968341;28;20208;-67
2024/01/20 04:23:56;;;;;;;32.33;17.40;;;-1.50;99.90;;;;;;4969041;28;20211;-66
2024/01/20 04:26:24;;;;;;;29.95;15.95;;;-1.60;99.90;;;;;;4969012;28;20237;-67
2024/01/20 04:28:52;;;;;;;30.70;15.43;;;-1.60;99.90;;;;;;4968995;28;20208;-67
2024/01/20 04:31:20;;;;;;;33.30;16.60;;;-1.60;99.90;;;;;;4968569;28;20208;-67
2024/01/20 04:33:48;;;;;;;33.83;17.70;;;-1.60;99.90;;;;;;4969175;28;20621;-66
2024/01/20 04:36:16;;;;;;;32.97;16.15;;;-1.50;99.90;;;;;;4968954;28;20240;-66
2024/01/20 04:38:44;;;;;;;30.70;16.38;;;-1.50;99.90;;;;;;4968720;28;20701;-66
2024/01/20 04:41:14;;;;;;;28.88;16.05;;;-1.40;99.90;;;;;;4968331;28;20208;-67
2024/01/20 04:43:42;;;;;;;29.60;15.60;;;-1.40;99.90;;;;;;4968820;28;20307;-67
2024/01/20 04:46:10;;;;;;;31.67;14.95;;;-1.60;99.90;;;;;;4968507;28;20334;-67
2024/01/20 04:48:37;;;;;;;28.85;14.80;;;-1.60;99.90;;;;;;4968520;28;20302;-67
2024/01/20 04:51:05;;;;;;;36.30;18.23;;;-1.60;99.90;;;;;;4968085;28;20654;-67
2024/01/20 04:53:34;;;;;;;34.67;16.23;;;-1.60;99.90;;;;;;4968780;28;20327;-67
2024/01/20 04:56:03;;;;;;;33.53;17.92;;;-1.60;99.90;;;;;;4968367;28;20618;-67
2024/01/20 04:58:33;;;;;;;32.78;16.60;;;-1.60;99.90;;;;;;4968630;28;20212;-66
2024/01/20 05:01:01;;;;;;;28.95;15.43;;;-1.60;99.90;;;;;;4967770;28;20243;-67
2024/01/20 05:03:28;;;;;;;29.83;16.42;;;-1.60;99.90;;;;;;4968834;28;20216;-67
2024/01/20 05:05:57;;;;;;;34.85;17.73;;;-1.70;99.90;;;;;;4972303;28;20666;-66
2024/01/20 05:08:25;;;;;;;30.55;16.27;;;-1.70;99.90;;;;;;4972196;28;20220;-67
2024/01/20 05:10:53;;;;;;;28.10;15.32;;;-1.80;99.90;;;;;;4971529;28;20216;-66
2024/01/20 05:13:21;;;;;;;31.30;15.85;;;-1.80;99.90;;;;;;4971852;28;20220;-67
2024/01/20 05:15:50;;;;;;;36.25;18.48;;;-1.80;99.90;;;;;;4971854;28;20290;-67
2024/01/20 05:18:18;;;;;;;35.08;19.20;;;-1.80;99.90;;;;;;4971701;28;20888;-67
2024/01/20 05:20:46;;;;;;;31.95;15.15;;;-1.80;99.90;;;;;;4971219;28;20219;-67
2024/01/20 05:23:14;;;;;;;31.98;16.65;;;-1.80;99.90;;;;;;4971532;28;20295;-67
2024/01/20 05:25:42;;;;;;;33.90;17.58;;;-1.80;99.90;;;;;;4971408;28;20322;-66
2024/01/20 05:28:10;;;;;;;36.03;17.98;;;-1.90;99.90;;;;;;4971262;28;20689;-67
2024/01/20 05:30:38;;;;;;;32.35;17.73;;;-1.90;99.90;;;;;;4971355;28;20211;-67
2024/01/20 05:33:08;;;;;;;33.30;17.13;;;-1.90;99.90;;;;;;4971126;28;20328;-66
2024/01/20 05:35:37;;;;;;;36.00;17.67;;;-1.90;99.90;;;;;;4970712;28;20236;-67
2024/01/20 05:38:05;;;;;;;30.73;16.38;;;-1.80;99.90;;;;;;4971244;28;20748;-66
2024/01/20 05:40:33;;;;;;;31.02;15.98;;;-1.90;99.90;;;;;;4969863;28;20215;-66
2024/01/20 05:43:01;;;;;;;30.92;15.57;;;-2.00;99.90;;;;;;4970632;28;20270;-67
2024/01/20 05:45:29;;;;;;;31.73;16.35;;;-2.00;99.90;;;;;;4971323;28;20913;-66
2024/01/20 05:47:57;;;;;;;32.30;17.10;;;-2.00;99.90;;;;;;4971787;28;20212;-67
2024/01/20 05:50:26;;;;;;;29.67;15.77;;;-2.00;99.90;;;;;;4969979;28;20992;-67
2024/01/20 05:52:54;;;;;;;36.65;18.52;;;-2.10;99.90;;;;;;4970661;28;20222;-66
2024/01/20 05:55:22;;;;;;;36.15;18.10;;;-2.20;99.90;;;;;;4970841;28;20216;-67
2024/01/20 05:57:50;;;;;;;37.85;18.45;;;-2.10;99.90;;;;;;4970948;28;20264;-67
2024/01/20 06:00:20;;;;;;;34.22;18.13;;;-2.10;99.90;;;;;;4970579;28;20247;-67
2024/01/20 06:02:49;;;;;;;33.88;17.13;;;-2.10;99.90;;;;;;4970828;28;20207;-67
2024/01/20 06:05:16;;;;;;;34.60;17.83;;;-2.10;99.90;;;;;;4970673;28;20208;-66
2024/01/20 06:07:46;;;;;;;36.63;19.30;;;-2.20;99.90;;;;;;4970966;28;20204;-66
2024/01/20 06:10:13;;;;;;;38.13;18.75;;;-2.20;99.90;;;;;;4970571;28;20211;-67
2024/01/20 06:12:41;;;;;;;37.05;20.00;;;-2.20;99.90;;;;;;4970643;28;20216;-67
2024/01/20 06:15:10;;;;;;;35.58;17.13;;;-2.30;99.90;;;;;;4969937;28;20236;-67
2024/01/20 06:17:38;;;;;;;32.50;17.98;;;-2.20;99.90;;;;;;4970507;28;20255;-66
2024/01/20 06:20:07;;;;;;;35.88;19.40;;;-2.10;99.90;;;;;;4970257;28;20220;-66
2024/01/20 06:22:37;;;;;;;40.67;20.33;;;-2.20;99.90;;;;;;4970555;28;20697;-67
2024/01/20 06:25:07;;;;;;;37.92;20.05;;;-2.30;99.90;;;;;;4970678;28;20212;-67
2024/01/20 06:27:35;;;;;;;35.92;18.50;;;-2.30;99.90;;;;;;4970690;28;20228;-66
2024/01/20 06:30:04;;;;;;;39.75;17.85;;;-2.20;99.90;;;;;;4970043;28;20585;-67
2024/01/20 06:32:32;;;;;;;34.38;17.88;;;-2.30;99.90;;;;;;4970236;28;20203;-67
2024/01/20 06:35:00;;;;;;;34.83;18.00;;;-2.40;99.90;;;;;;4970420;28;20212;-67
2024/01/20 06:37:28;;;;;;;41.00;19.63;;;-2.30;99.90;;;;;;4970189;28;20351;-67
2024/01/20 06:39:56;;;;;;;35.78;18.35;;;-2.30;99.90;;;;;;4969691;28;20275;-67
2024/01/20 06:42:25;;;;;;;35.35;17.50;;;-2.40;99.90;;;;;;4970115;28;20242;-66
2024/01/20 06:44:54;;;;;;;34.30;16.90;;;-2.40;99.90;;;;;;4970026;28;20216;-67
2024/01/20 06:47:25;;;;;;;34.90;17.25;;;-2.30;99.90;;;;;;4970006;28;20788;-66
2024/01/20 06:49:54;;;;;;;34.45;17.25;;;-2.40;99.90;;;;;;4970147;28;20215;-67
2024/01/20 06:52:22;;;;;;;38.80;19.15;;;-2.40;99.90;;;;;;4970096;28;20674;-66
2024/01/20 06:54:50;;;;;;;35.95;18.13;;;-2.50;99.90;;;;;;4970223;28;20286;-67
2024/01/20 06:57:17;;;;;;;35.83;18.02;;;-2.50;99.90;;;;;;4969698;28;20254;-66
2024/01/20 06:59:47;;;;;;;35.83;16.38;;;-2.40;99.90;;;;;;4969620;28;20212;-67
2024/01/20 07:02:15;;;;;;;38.35;17.63;;;-2.30;99.90;;;;;;4969680;28;20666;-66
2024/01/20 07:04:43;;;;;;;33.78;17.48;;;-2.40;99.90;;;;;;4969893;28;20215;-66
2024/01/20 07:07:11;;;;;;;32.17;17.27;;;-2.40;99.90;;;;;;4968596;28;20311;-67
2024/01/20 07:09:39;;;;;;;39.92;17.33;;;-2.50;99.90;;;;;;4969358;28;20262;-66
2024/01/20 07:12:08;;;;;;;34.28;17.73;;;-2.60;99.90;;;;;;4966803;28;20219;-67
2024/01/20 07:14:36;;;;;;;34.83;17.27;;;-2.60;99.90;;;;;;4969542;28;20204;-67
2024/01/20 07:17:05;;;;;;;40.70;18.75;;;-2.50;99.90;;;;;;4969535;28;20338;-66
2024/01/20 07:19:33;;;;;;;30.50;17.00;;;-2.40;99.90;;;;;;4969128;28;20290;-66
2024/01/20 07:22:01;;;;;;;35.03;16.77;;;-2.40;99.90;;;;;;4969406;28;20262;-66
2024/01/20 07:24:29;;;;;;;36.95;18.25;;;-2.40;99.90;;;;;;4969525;28;20207;-66
2024/01/20 07:26:57;;;;;;;36.58;16.92;;;-2.40;99.90;;;;;;4969215;28;20230;-67
2024/01/20 07:29:25;;;;;;;36.40;18.38;;;-2.40;99.90;;;;;;4969839;28;20208;-67
2024/01/20 07:31:53;;;;;;;37.90;18.02;;;-2.50;99.90;;;;;;4969202;28;20670;-66
2024/01/20 07:34:22;;;;;;;34.42;18.05;;;-2.40;99.90;;;;;;4968956;28;20689;-66
2024/01/20 07:36:51;;;;;;;38.83;18.08;;;-2.40;99.90;;;;;;4969323;28;20641;-66
2024/01/20 07:39:19;;;;;;;34.15;17.63;;;-2.30;99.90;;;;;;4968842;28;20314;-67
2024/01/20 07:41:46;;;;;;;29.23;15.73;;;-2.40;99.90;;;;;;4968689;28;20211;-67
2024/01/20 07:44:14;;;;;;;33.08;16.40;;;-2.30;99.90;;;;;;4969115;28;20319;-66
2024/01/20 07:46:42;;;;;;;32.78;16.95;;;-2.30;99.90;;;;;;4969457;28;20236;-67
2024/01/20 07:49:10;;;;;;;33.78;17.77;;;-2.30;99.90;;;;;;4969387;28;20624;-66
2024/01/20 07:51:40;;;;;;;33.67;16.17;;;-2.30;99.90;;;;;;4968948;28;20677;-67
2024/01/20 07:54:09;;;;;;;33.47;16.85;;;-2.40;99.90;;;;;;4968912;28;20233;-67
2024/01/20 07:56:37;;;;;;;35.53;16.75;;;-2.40;99.90;;;;;;4962534;28;20231;-67
2024/01/20 07:59:05;;;;;;;34.03;16.80;;;-2.30;99.90;;;;;;4968692;28;20259;-66
2024/01/20 08:01:33;;;;;;;29.50;16.27;;;-2.20;99.90;;;;;;4968425;28;20203;-67
2024/01/20 08:04:02;;;;;;;33.28;16.38;;;-2.10;99.90;;;;;;4968884;28;20207;-67
2024/01/20 08:06:30;;;;;;;35.20;16.70;;;-2.20;99.90;;;;;;4968622;28;20232;-66
2024/01/20 08:08:59;;;;;;;36.35;16.73;;;-2.20;99.90;;;;;;4969117;28;20223;-66
2024/01/20 08:11:27;;;;;;;30.80;16.77;;;-2.30;99.90;;;;;;4968221;28;20259;-67
2024/01/20 08:13:55;;;;;;;29.35;14.43;;;-2.20;99.90;;;;;;4967241;28;20736;-67
2024/01/20 08:16:25;;;;;;;36.15;17.35;;;-2.20;99.90;;;;;;4967901;28;20238;-67
2024/01/20 08:18:53;;;;;;;33.67;16.48;;;-2.10;99.90;;;;;;4967751;28;20224;-67
2024/01/20 08:21:21;;;;;;;30.15;16.33;;;-2.20;99.90;;;;;;4959769;28;20275;-67
2024/01/20 08:23:49;;;;;;;34.05;16.58;;;-2.30;99.90;;;;;;4968002;28;20231;-67
2024/01/20 08:26:18;;;;;;;31.58;16.75;;;-2.20;99.90;;;;;;4966478;28;20760;-67
2024/01/20 08:28:46;;;;;;;31.00;17.02;;;-2.20;99.90;;;;;;4967895;28;20234;-67
2024/01/20 08:31:14;;;;;;;31.83;17.83;;;-2.30;99.90;;;;;;4967314;28;20670;-67
2024/01/20 08:33:42;;;;;;;39.90;19.05;;;-2.30;99.90;;;;;;4968298;28;20243;-67
2024/01/20 08:36:11;;;;;;;30.55;15.73;;;-2.10;99.90;;;;;;4967258;28;20241;-67
2024/01/20 08:38:39;;;;;;;29.88;15.75;;;-2.00;99.90;;;;;;4968068;28;20240;-67
2024/01/20 08:41:10;;;;;;;36.75;17.05;;;-2.00;99.90;;;;;;4970393;28;20682;-66
2024/01/20 08:43:42;;;;;;;33.78;16.67;;;-1.90;99.90;;;;;;4972141;28;20279;-67
2024/01/20 08:46:11;;;;;;;29.40;15.05;;;-1.90;99.90;;;;;;4972244;28;20227;-67
2024/01/20 08:48:40;;;;;;;37.28;16.95;;;-1.80;99.90;;;;;;4972240;28;20212;-67
2024/01/20 08:51:09;;;;;;;31.90;15.27;;;-1.90;99.90;;;;;;4971593;28;20724;-67
2024/01/20 08:53:37;;;;;;;32.80;16.67;;;-1.90;99.90;;;;;;4972033;28;20693;-67
2024/01/20 08:56:06;;;;;;;34.95;18.67;;;-1.90;99.90;;;;;;4972193;28;20232;-67
2024/01/20 08:58:34;;;;;;;34.45;17.33;;;-1.80;99.90;;;;;;4971917;28;20672;-67
2024/01/20 09:01:04;;;;;;;32.35;17.45;;;-1.70;99.90;;;;;;4971521;28;20558;-66
2024/01/20 09:03:32;;;;;;;33.70;19.05;;;-1.70;99.90;;;;;;4964406;28;20214;-67
2024/01/20 09:06:00;;;;;;;38.67;18.17;;;-1.70;99.90;;;;;;4972273;28;20756;-68
2024/01/20 09:08:28;;;;;;;33.42;17.90;;;-1.60;99.90;;;;;;4971937;28;20204;-68
2024/01/20 09:10:58;;;;;;;33.50;17.90;;;-1.70;99.90;;;;;;4971728;28;20306;-68
2024/01/20 09:13:26;;;;;;;33.92;16.75;;;-1.50;99.90;;;;;;4971698;28;20586;-67
2024/01/20 09:15:54;;;;;;;31.80;17.08;;;-1.50;99.90;;;;;;4971601;28;20645;-67
2024/01/20 09:18:23;;;;;;;31.65;16.23;;;-1.40;99.90;;;;;;4971321;28;20204;-67
2024/01/20 09:20:51;;;;;;;34.03;17.13;;;-1.20;99.90;;;;;;4971185;28;20211;-68
2024/01/20 09:23:19;;;;;;;34.22;17.58;;;-1.20;99.90;;;;;;4971776;28;20664;-67
2024/01/20 09:25:47;;;;;;;36.75;18.20;;;-1.30;99.90;;;;;;4971697;28;20223;-67
2024/01/20 09:28:15;;;;;;;30.45;16.67;;;-1.40;99.90;;;;;;4971282;28;20246;-68
2024/01/20 09:30:43;;;;;;;35.72;17.50;;;-1.40;99.90;;;;;;4971304;28;20259;-68
2024/01/20 09:33:11;;;;;;;31.80;17.58;;;-1.30;99.90;;;;;;4970990;28;20240;-68
2024/01/20 09:35:41;;;;;;;27.98;16.33;;;-1.20;99.90;;;;;;4971610;28;20298;-68
2024/01/20 09:38:09;;;;;;;39.13;17.75;;;-1.20;99.90;;;;;;4971063;28;20215;-67
2024/01/20 09:40:37;;;;;;;31.23;17.58;;;-1.30;99.90;;;;;;4969703;28;20701;-67
2024/01/20 09:43:05;;;;;;;32.38;16.98;;;-1.30;99.90;;;;;;4971190;28;20203;-67
2024/01/20 09:45:38;;;;;;;35.20;18.40;;;-1.30;99.90;;;;;;4971287;28;20633;-67
2024/01/20 09:48:07;;;;;;;34.30;18.55;;;-1.20;99.90;;;;;;4969542;28;20270;-68
2024/01/20 09:50:35;;;;;;;37.78;17.25;;;-1.00;99.90;;;;;;4970745;28;20250;-70
2024/01/20 09:53:15;;;;;;;35.30;19.48;;;-0.90;99.90;;;;;;4979175;28;20635;-71
2024/01/20 09:55:44;;;;;;;33.58;18.10;;;-0.80;99.90;;;;;;4962942;28;20228;-68
2024/01/20 09:58:12;;;;;;;32.58;16.70;;;-0.80;99.90;;;;;;4970610;28;20228;-68
2024/01/20 10:00:41;;;;;;;34.15;16.35;;;-0.90;99.90;;;;;;4970598;28;20242;-69
2024/01/20 10:03:11;;;;;;;32.08;17.33;;;-0.90;99.90;;;;;;4971287;28;20294;-72
2024/01/20 10:05:40;;;;;;;34.92;17.17;;;-0.70;99.90;;;;;;4971118;28;20251;-68
2024/01/20 10:08:10;;;;;;;34.10;18.77;;;-0.70;99.90;;;;;;4971151;28;20227;-68
2024/01/20 10:10:38;;;;;;;31.33;17.73;;;-0.70;99.90;;;;;;4970328;28;20234;-69
2024/01/20 10:13:06;;;;;;;36.78;17.15;;;-0.50;99.90;;;;;;4973011;28;20228;-68
2024/01/20 10:15:35;;;;;;;34.03;18.25;;;-0.60;99.90;;;;;;4976757;28;20284;-69
2024/01/20 10:18:08;;;;;;;31.65;18.02;;;-0.60;99.90;;;;;;4986231;28;20234;-68
2024/01/20 10:20:36;;;;;;;37.95;20.15;;;-0.50;99.90;;;;;;4977840;28;20228;-68
2024/01/20 10:23:06;;;;;;;37.05;19.40;;;-0.40;99.90;;;;;;4970491;28;20270;-69
2024/01/20 10:25:39;;;;;;;33.08;17.38;;;-0.30;99.90;;;;;;4975333;28;20211;-68
2024/01/20 10:28:08;;;;;;;32.60;18.40;;;-0.10;99.90;;;;;;4983456;28;20242;-69
2024/01/20 10:30:38;;;;;;;35.80;18.20;;;0.00;99.90;;;;;;4968004;28;20211;-68
2024/01/20 10:33:08;;;;;;;36.80;17.70;;;0.00;99.90;;;;;;4974444;28;20201;-68
2024/01/20 10:35:38;;;;;;;32.80;17.88;;;0.20;99.90;;;;;;4989547;28;20255;-70
2024/01/20 10:38:12;;;;;;;36.08;18.98;;;0.60;99.90;;;;;;4973382;28;20765;-70
2024/01/20 10:40:45;;;;;;;31.27;18.23;;;1.00;99.90;;;;;;4969820;28;20242;-70
2024/01/20 10:43:14;;;;;;;33.47;17.50;;;1.50;99.90;;;;;;4967155;28;20240;-69
2024/01/20 10:45:51;;;;;;;33.00;17.67;;;1.60;99.90;;;;;;4970223;28;20238;-69
2024/01/20 10:48:21;;;;;;;34.33;19.30;;;1.90;99.90;;;;;;4966898;28;20644;-70
2024/01/20 10:50:54;;;;;;;31.97;17.33;;;2.20;99.90;;;;;;4969151;28;20545;-70
2024/01/20 10:53:23;;;;;;;29.57;17.50;;;2.70;99.90;;;;;;4973507;28;20494;-69
2024/01/20 10:55:52;;;;;;;32.17;18.07;;;3.20;99.90;;;;;;4967077;28;20475;-70
2024/01/20 10:58:24;;;;;;;26.23;16.43;;;3.50;98.40;;;;;;4975516;28;20451;-69
2024/01/20 11:00:53;;;;;;;29.73;15.70;;;3.60;95.50;;;;;;4975903;28;20489;-70
2024/01/20 11:03:21;;;;;;;30.10;17.17;;;3.80;95.40;;;;;;4965267;28;20454;-70
2024/01/20 11:05:49;;;;;;;34.43;18.17;;;3.70;95.10;;;;;;4981314;28;20470;-69
2024/01/20 11:08:25;;;;;;;30.07;18.17;;;3.10;95.70;;;;;;4973367;28;20494;-69
2024/01/20 11:10:55;;;;;;;30.77;17.47;;;2.40;96.00;;;;;;4978137;28;20498;-69
2024/01/20 11:13:27;;;;;;;30.35;17.45;;;1.70;97.30;;;;;;4977834;28;20525;-69
2024/01/20 11:15:57;;;;;;;29.90;17.55;;;1.20;98.30;;;;;;4980242;28;20735;-69
2024/01/20 11:18:26;;;;;;;27.77;16.92;;;0.80;99.90;;;;;;4982137;28;20202;-70
2024/01/20 11:20:57;;;;;;;29.77;15.77;;;0.40;99.90;;;;;;4976804;28;20225;-70
2024/01/20 11:23:26;;;;;;;33.30;18.30;;;0.20;99.90;;;;;;4980568;28;20567;-69
2024/01/20 11:25:57;;;;;;;34.70;17.48;;;0.00;99.90;;;;;;4974527;28;20234;-69
2024/01/20 11:28:26;;;;;;;35.40;17.20;;;-0.20;99.90;;;;;;4975158;28;20209;-70
2024/01/20 11:30:54;;;;;;;34.40;16.67;;;-0.30;99.90;;;;;;4967822;28;20258;-69
2024/01/20 11:33:23;;;;;;;32.92;16.20;;;-0.20;99.90;;;;;;4965266;28;20290;-69
2024/01/20 11:35:52;;;;;;;31.80;17.10;;;-0.10;99.90;;;;;;4966791;28;20223;-69
2024/01/20 11:38:21;;;;;;;33.47;17.95;;;-0.30;99.90;;;;;;4967362;28;20219;-70
2024/01/20 11:40:59;;;;;;;33.17;18.08;;;-0.30;99.90;;;;;;4967174;28;20212;-69
2024/01/20 11:43:27;;;;;;;32.80;18.20;;;-0.40;99.90;;;;;;4964777;28;20205;-69
2024/01/20 11:45:56;;;;;;;35.85;17.52;;;-0.40;99.90;;;;;;4968129;28;20223;-69
2024/01/20 11:48:25;;;;;;;36.95;16.77;;;-0.40;99.90;;;;;;4964345;28;20275;-69
2024/01/20 11:50:54;;;;;;;36.80;18.33;;;-0.50;99.90;;;;;;4966809;28;20213;-69
2024/01/20 11:53:23;;;;;;;31.02;16.05;;;-0.40;99.90;;;;;;4966606;28;20208;-70
2024/01/20 11:55:55;;;;;;;31.45;15.65;;;-0.40;99.90;;;;;;4965573;28;20219;-70
2024/01/20 11:58:25;;;;;;;31.77;16.13;;;-0.40;99.90;;;;;;4968232;28;20254;-70
2024/01/20 12:00:54;;;;;;;32.53;17.60;;;-0.30;99.90;;;;;;4967124;28;20234;-69
2024/01/20 12:03:22;;;;;;;30.98;16.63;;;-0.30;99.90;;;;;;4965296;28;20208;-68
2024/01/20 12:05:51;;;;;;;33.03;16.83;;;-0.30;99.90;;;;;;4966158;28;20230;-68
2024/01/20 12:08:20;;;;;;;33.83;18.70;;;-0.30;99.90;;;;;;4966089;28;20208;-68
2024/01/20 12:10:50;;;;;;;36.20;20.13;;;-0.20;99.90;;;;;;4965057;28;20215;-67
2024/01/20 12:13:18;;;;;;;35.78;17.77;;;-0.20;99.90;;;;;;4972279;28;20677;-68
2024/01/20 12:15:49;;;;;;;32.22;17.42;;;-0.10;99.90;;;;;;4983235;28;20254;-68
2024/01/20 12:18:17;;;;;;;36.35;16.65;;;0.00;99.90;;;;;;4985945;28;20214;-68
2024/01/20 12:20:46;;;;;;;32.75;16.73;;;0.10;99.90;;;;;;4976186;28;20602;-68
2024/01/20 12:23:18;;;;;;;32.47;17.35;;;0.20;99.90;;;;;;4970917;28;20529;-69
2024/01/20 12:25:47;;;;;;;36.20;17.70;;;0.20;99.90;;;;;;4974115;28;20234;-68
2024/01/20 12:28:17;;;;;;;34.97;18.13;;;0.20;99.90;;;;;;4973478;28;20261;-68
2024/01/20 12:30:45;;;;;;;36.33;18.52;;;0.20;99.90;;;;;;4982403;28;20207;-68
2024/01/20 12:33:14;;;;;;;31.40;15.52;;;0.30;99.90;;;;;;4965895;28;20213;-68
2024/01/20 12:35:42;;;;;;;32.72;17.40;;;0.30;99.90;;;;;;4974257;28;20259;-67